Time;durP1;ratioP1;P1;durP2;ratioP2;P2;SDS_P1;SDS_P2;PMS_P1;PMS_P2;Temp;Humidity;BMP_temperature;BMP_pressure;BME280_temperature;BME280_humidity;BME280_pressure;Samples;Min_cycle;Max_cycle;Signal;HPM_P1;HPM_P2
2023/06/25 00:02:13;;;;;;;;;;;;;;;;;;5029289;28;90138;-75
2023/06/25 00:04:38;;;;;;;;;;;;;;;;;;5028511;28;89617;-75
2023/06/25 00:07:04;;;;;;;;;;;;;;;;;;5031381;28;89189;-73
2023/06/25 00:09:29;;;;;;;;;;;;;;;;;;5028571;27;89966;-72
2023/06/25 00:11:54;;;;;;;;;;;;;;;;;;5028437;28;89664;-73
2023/06/25 00:14:19;;;;;;;;;;;;;;;;;;5027732;28;89752;-73
2023/06/25 00:16:45;;;;;;;;;;;;;;;;;;5028578;28;89704;-75
2023/06/25 00:19:10;;;;;;;;;;;;;;;;;;5027290;28;89351;-73
2023/06/25 00:21:37;;;;;;;;;;;;;;;;;;5028562;28;90521;-73
2023/06/25 00:24:02;;;;;;;;;;;;;;;;;;5029120;28;89292;-75
2023/06/25 00:26:27;;;;;;;;;;;;;;;;;;5027561;28;90413;-72
2023/06/25 00:28:52;;;;;;;;;;;;;;;;;;5031718;28;89179;-72
2023/06/25 00:31:18;;;;;;;;;;;;;;;;;;5025407;28;89081;-73
2023/06/25 00:33:43;;;;;;;;;;;;;;;;;;5026756;28;92408;-75
2023/06/25 00:36:08;;;;;;;;;;;;;;;;;;5034274;27;90291;-74
2023/06/25 00:38:38;;;;;;;;;;;;;;;;;;5028816;28;89883;-76
2023/06/25 00:41:05;;;;;;;;;;;;;;;;;;5023009;28;91807;-73
2023/06/25 00:43:31;;;;;;;;;;;;;;;;;;5026815;28;90097;-72
2023/06/25 00:45:57;;;;;;;;;;;;;;;;;;5028001;28;89554;-74
2023/06/25 00:48:22;;;;;;;;;;;;;;;;;;5029253;28;92896;-77
2023/06/25 00:50:48;;;;;;;;;;;;;;;;;;5028535;27;89573;-73
2023/06/25 00:53:13;;;;;;;;;;;;;;;;;;5028345;27;91224;-76
2023/06/25 00:55:39;;;;;;;;;;;;;;;;;;5025336;27;89511;-77
2023/06/25 00:58:04;;;;;;;;;;;;;;;;;;5041492;27;89632;-73
2023/06/25 01:00:33;;;;;;;;;;;;;;;;;;5028076;27;88952;-72
2023/06/25 01:03:07;;;;;;;;;;;;;;;;;;5026645;28;92070;-72
2023/06/25 01:05:39;;;;;;;;;;;;;;;;;;5026462;28;89781;-73
2023/06/25 01:08:08;;;;;;;;;;;;;;;;;;5021991;28;89538;-73
2023/06/25 01:10:35;;;;;;;;;;;;;;;;;;5027035;28;89579;-73
2023/06/25 01:13:00;;;;;;;;;;;;;;;;;;5026606;27;89729;-73
2023/06/25 01:15:26;;;;;;;;;;;;;;;;;;5026135;28;89791;-73
2023/06/25 01:17:51;;;;;;;;;;;;;;;;;;5026652;27;89045;-73
2023/06/25 01:20:16;;;;;;;;;;;;;;;;;;5025295;28;92133;-73
2023/06/25 01:22:41;;;;;;;;;;;;;;;;;;5026963;28;89603;-72
2023/06/25 01:25:07;;;;;;;;;;;;;;;;;;5026511;28;89107;-73
2023/06/25 01:27:36;;;;;;;;;;;;;;;;;;5026990;27;89601;-73
2023/06/25 01:30:03;;;;;;;;;;;;;;;;;;5023335;28;89641;-73
2023/06/25 01:32:29;;;;;;;;;;;;;;;;;;5029972;28;90144;-72
2023/06/25 01:34:54;;;;;;;;;;;;;;;;;;5025492;27;90087;-72
2023/06/25 01:37:19;;;;;;;;;;;;;;;;;;5027153;27;89534;-73
2023/06/25 01:39:46;;;;;;;;;;;;;;;;;;5025586;28;90140;-74
2023/06/25 01:42:11;;;;;;;;;;;;;;;;;;5026138;27;89850;-72
2023/06/25 01:44:37;;;;;;;;;;;;;;;;;;5026111;28;89083;-73
2023/06/25 01:47:02;;;;;;;;;;;;;;;;;;5025818;28;89670;-73
2023/06/25 01:49:28;;;;;;;;;;;;;;;;;;5026610;27;91382;-73
2023/06/25 01:51:53;;;;;;;;;;;;;;;;;;5026850;28;89503;-72
2023/06/25 01:54:18;;;;;;;;;;;;;;;;;;5028867;28;89083;-72
2023/06/25 01:56:43;;;;;;;;;;;;;;;;;;5026312;28;89519;-72
2023/06/25 01:59:09;;;;;;;;;;;;;;;;;;5026137;27;90310;-72
2023/06/25 02:01:34;;;;;;;;;;;;;;;;;;5026273;28;89722;-73
2023/06/25 02:03:59;;;;;;;;;;;;;;;;;;5023877;28;89510;-73
2023/06/25 02:06:25;;;;;;;;;;;;;;;;;;5025160;28;89717;-73
2023/06/25 02:08:50;;;;;;;;;;;;;;;;;;5026668;28;91786;-73
2023/06/25 02:11:16;;;;;;;;;;;;;;;;;;5026766;28;90634;-73
2023/06/25 02:13:41;;;;;;;;;;;;;;;;;;5025828;28;89609;-73
2023/06/25 02:16:06;;;;;;;;;;;;;;;;;;5022509;28;89330;-73
2023/06/25 02:18:31;;;;;;;;;;;;;;;;;;5024260;28;91201;-74
2023/06/25 02:20:57;;;;;;;;;;;;;;;;;;5024943;27;90241;-74
2023/06/25 02:23:22;;;;;;;;;;;;;;;;;;5022219;27;90048;-74
2023/06/25 02:25:48;;;;;;;;;;;;;;;;;;5023479;28;90621;-73
2023/06/25 02:28:13;;;;;;;;;;;;;;;;;;5023269;28;90879;-73
2023/06/25 02:30:38;;;;;;;;;;;;;;;;;;5020610;28;89169;-73
2023/06/25 02:33:04;;;;;;;;;;;;;;;;;;5024732;28;90126;-73
2023/06/25 02:35:29;;;;;;;;;;;;;;;;;;5026406;27;89340;-75
2023/06/25 02:37:54;;;;;;;;;;;;;;;;;;5021656;28;89746;-73
2023/06/25 02:40:20;;;;;;;;;;;;;;;;;;5022472;28;89841;-73
2023/06/25 02:42:46;;;;;;;;;;;;;;;;;;5019884;27;90198;-73
2023/06/25 02:45:11;;;;;;;;;;;;;;;;;;5020659;28;89587;-75
2023/06/25 02:47:36;;;;;;;;;;;;;;;;;;5024147;28;90217;-76
2023/06/25 02:50:01;;;;;;;;;;;;;;;;;;5022658;28;89656;-74
2023/06/25 02:52:26;;;;;;;;;;;;;;;;;;5019118;28;90895;-75
2023/06/25 02:54:52;;;;;;;;;;;;;;;;;;5018103;28;89429;-76
2023/06/25 02:57:17;;;;;;;;;;;;;;;;;;5025838;28;90874;-75
2023/06/25 02:59:42;;;;;;;;;;;;;;;;;;5025339;27;90334;-76
2023/06/25 03:02:07;;;;;;;;;;;;;;;;;;5027964;28;90173;-77
2023/06/25 03:04:33;;;;;;;;;;;;;;;;;;5026422;28;90423;-75
2023/06/25 03:06:58;;;;;;;;;;;;;;;;;;5022819;28;89536;-77
2023/06/25 03:09:23;;;;;;;;;;;;;;;;;;5023919;27;89028;-75
2023/06/25 03:11:48;;;;;;;;;;;;;;;;;;5026808;28;89652;-73
2023/06/25 03:14:14;;;;;;;;;;;;;;;;;;5026977;28;89509;-73
2023/06/25 03:16:39;;;;;;;;;;;;;;;;;;5025316;28;89292;-73
2023/06/25 03:19:04;;;;;;;;;;;;;;;;;;5030041;27;91509;-73
2023/06/25 03:21:30;;;;;;;;;;;;;;;;;;5027243;28;88998;-74
2023/06/25 03:23:55;;;;;;;;;;;;;;;;;;5025220;27;89884;-73
2023/06/25 03:26:20;;;;;;;;;;;;;;;;;;5021255;28;89719;-74
2023/06/25 03:28:45;;;;;;;;;;;;;;;;;;5023586;28;89297;-73
2023/06/25 03:31:10;;;;;;;;;;;;;;;;;;5026708;28;90181;-74
2023/06/25 03:33:36;;;;;;;;;;;;;;;;;;5024957;28;89674;-73
2023/06/25 03:36:01;;;;;;;;;;;;;;;;;;5025181;28;90237;-73
2023/06/25 03:38:26;;;;;;;;;;;;;;;;;;5021294;28;90220;-72
2023/06/25 03:40:51;;;;;;;;;;;;;;;;;;5025774;28;89980;-73
2023/06/25 03:43:16;;;;;;;;;;;;;;;;;;5022821;28;90599;-74
2023/06/25 03:45:42;;;;;;;;;;;;;;;;;;5024046;28;89574;-73
2023/06/25 03:48:07;;;;;;;;;;;;;;;;;;5023181;28;90615;-73
2023/06/25 03:50:32;;;;;;;;;;;;;;;;;;5024272;28;90148;-74
2023/06/25 03:52:57;;;;;;;;;;;;;;;;;;5024556;28;90778;-75
2023/06/25 03:55:22;;;;;;;;;;;;;;;;;;5020609;28;89637;-73
2023/06/25 03:57:50;;;;;;;;;;;;;;;;;;5022050;28;89861;-73
2023/06/25 04:00:15;;;;;;;;;;;;;;;;;;5020088;28;89534;-73
2023/06/25 04:02:40;;;;;;;;;;;;;;;;;;5025315;28;89293;-74
2023/06/25 04:05:05;;;;;;;;;;;;;;;;;;5025634;28;89843;-73
2023/06/25 04:07:31;;;;;;;;;;;;;;;;;;5018518;28;89155;-73
2023/06/25 04:09:56;;;;;;;;;;;;;;;;;;5022340;27;92892;-73
2023/06/25 04:12:21;;;;;;;;;;;;;;;;;;4984190;28;1167981;-73
2023/06/25 04:14:46;;;;;;;;;;;;;;;;;;5027088;28;90341;-73
2023/06/25 04:17:11;;;;;;;;;;;;;;;;;;5023205;28;90131;-73
2023/06/25 04:19:38;;;;;;;;;;;;;;;;;;5025563;28;89383;-72
2023/06/25 04:22:03;;;;;;;;;;;;;;;;;;5018099;28;90304;-74
2023/06/25 04:24:29;;;;;;;;;;;;;;;;;;5027247;28;89701;-73
2023/06/25 04:26:54;;;;;;;;;;;;;;;;;;5025708;28;89825;-73
2023/06/25 04:29:19;;;;;;;;;;;;;;;;;;5025561;28;89769;-73
2023/06/25 04:31:44;;;;;;;;;;;;;;;;;;5025412;28;89279;-73
2023/06/25 04:34:09;;;;;;;;;;;;;;;;;;5021644;28;89990;-73
2023/06/25 04:36:34;;;;;;;;;;;;;;;;;;5025171;28;92315;-73
2023/06/25 04:39:00;;;;;;;;;;;;;;;;;;5020814;28;89441;-73
2023/06/25 04:41:25;;;;;;;;;;;;;;;;;;5021115;28;89326;-75
2023/06/25 04:43:50;;;;;;;;;;;;;;;;;;5029452;28;90521;-73
2023/06/25 04:46:15;;;;;;;;;;;;;;;;;;5026373;28;89054;-73
2023/06/25 04:48:43;;;;;;;;;;;;;;;;;;5021228;28;90176;-72
2023/06/25 04:51:08;;;;;;;;;;;;;;;;;;5023907;27;90744;-72
2023/06/25 04:53:33;;;;;;;;;;;;;;;;;;5024487;28;89019;-73
2023/06/25 04:55:58;;;;;;;;;;;;;;;;;;5022275;28;90206;-75
2023/06/25 04:58:24;;;;;;;;;;;;;;;;;;5022431;28;89509;-74
2023/06/25 05:00:49;;;;;;;;;;;;;;;;;;5024455;28;89700;-75
2023/06/25 05:03:14;;;;;;;;;;;;;;;;;;5020574;28;89765;-74
2023/06/25 05:05:39;;;;;;;;;;;;;;;;;;5026532;28;90600;-75
2023/06/25 05:08:05;;;;;;;;;;;;;;;;;;5029087;27;91494;-75
2023/06/25 05:10:30;;;;;;;;;;;;;;;;;;5027299;27;92143;-77
2023/06/25 05:12:55;;;;;;;;;;;;;;;;;;5024237;28;90240;-75
2023/06/25 05:15:20;;;;;;;;;;;;;;;;;;5026666;27;91121;-75
2023/06/25 05:17:46;;;;;;;;;;;;;;;;;;5021686;28;89447;-77
2023/06/25 05:20:11;;;;;;;;;;;;;;;;;;5023545;28;89583;-76
2023/06/25 05:22:36;;;;;;;;;;;;;;;;;;5022483;28;89732;-76
2023/06/25 05:25:01;;;;;;;;;;;;;;;;;;5025241;27;89396;-73
2023/06/25 05:27:27;;;;;;;;;;;;;;;;;;5027370;28;89206;-74
2023/06/25 05:29:52;;;;;;;;;;;;;;;;;;5023263;28;90601;-77
2023/06/25 05:32:18;;;;;;;;;;;;;;;;;;5022836;28;89998;-77
2023/06/25 05:34:43;;;;;;;;;;;;;;;;;;5021352;28;90394;-77
2023/06/25 05:37:08;;;;;;;;;;;;;;;;;;5023357;27;89656;-72
2023/06/25 05:39:34;;;;;;;;;;;;;;;;;;5016718;28;89040;-73
2023/06/25 05:41:59;;;;;;;;;;;;;;;;;;5019659;28;92834;-73
2023/06/25 05:44:25;;;;;;;;;;;;;;;;;;5024409;28;89594;-73
2023/06/25 05:46:50;;;;;;;;;;;;;;;;;;5020921;28;89146;-73
2023/06/25 05:49:15;;;;;;;;;;;;;;;;;;5020048;28;89701;-74
2023/06/25 05:51:40;;;;;;;;;;;;;;;;;;5020770;27;89156;-73
2023/06/25 05:54:06;;;;;;;;;;;;;;;;;;5020995;28;89898;-74
2023/06/25 05:56:31;;;;;;;;;;;;;;;;;;5022600;28;89872;-77
2023/06/25 05:58:56;;;;;;;;;;;;;;;;;;5024318;28;90263;-77
2023/06/25 06:01:22;;;;;;;;;;;;;;;;;;5024281;28;89763;-75
2023/06/25 06:03:47;;;;;;;;;;;;;;;;;;5023915;27;89918;-77
2023/06/25 06:06:13;;;;;;;;;;;;;;;;;;5023373;28;89539;-76
2023/06/25 06:08:38;;;;;;;;;;;;;;;;;;5023667;28;90220;-75
2023/06/25 06:11:03;;;;;;;;;;;;;;;;;;5025872;28;89753;-77
2023/06/25 06:13:28;;;;;;;;;;;;;;;;;;5021359;28;90411;-75
2023/06/25 06:15:54;;;;;;;;;;;;;;;;;;5019907;28;89818;-76
2023/06/25 06:18:19;;;;;;;;;;;;;;;;;;5024658;28;89995;-76
2023/06/25 06:20:44;;;;;;;;;;;;;;;;;;5020984;28;90928;-75
2023/06/25 06:23:09;;;;;;;;;;;;;;;;;;5023106;28;89171;-76
2023/06/25 06:25:34;;;;;;;;;;;;;;;;;;5021561;28;89129;-77
2023/06/25 06:28:00;;;;;;;;;;;;;;;;;;5022630;28;89771;-76
2023/06/25 06:30:25;;;;;;;;;;;;;;;;;;5019268;28;90392;-76
2023/06/25 06:32:50;;;;;;;;;;;;;;;;;;5021953;27;91750;-76
2023/06/25 06:35:15;;;;;;;;;;;;;;;;;;5018912;28;89876;-78
2023/06/25 06:37:41;;;;;;;;;;;;;;;;;;5020512;28;90178;-73
2023/06/25 06:40:06;;;;;;;;;;;;;;;;;;5019004;28;89770;-73
2023/06/25 06:42:35;;;;;;;;;;;;;;;;;;5022038;27;89506;-74
2023/06/25 06:45:01;;;;;;;;;;;;;;;;;;5023463;27;89509;-75
2023/06/25 06:47:26;;;;;;;;;;;;;;;;;;5024253;27;90907;-76
2023/06/25 06:49:52;;;;;;;;;;;;;;;;;;5021837;28;89389;-72
2023/06/25 06:52:18;;;;;;;;;;;;;;;;;;5021920;28;90432;-76
2023/06/25 06:54:44;;;;;;;;;;;;;;;;;;5023095;28;89653;-74
2023/06/25 06:57:09;;;;;;;;;;;;;;;;;;5023223;28;89204;-77
2023/06/25 06:59:34;;;;;;;;;;;;;;;;;;5018121;28;89546;-72
2023/06/25 07:02:00;;;;;;;;;;;;;;;;;;5023978;28;89443;-74
2023/06/25 07:04:25;;;;;;;;;;;;;;;;;;5024683;28;89064;-71
2023/06/25 07:06:50;;;;;;;;;;;;;;;;;;5023154;28;89657;-72
2023/06/25 07:09:22;;;;;;;;;;;;;;;;;;5024462;28;89529;-71
2023/06/25 07:11:47;;;;;;;;;;;;;;;;;;5018522;27;90607;-71
2023/06/25 07:14:12;;;;;;;;;;;;;;;;;;5025038;28;90728;-72
2023/06/25 07:16:38;;;;;;;;;;;;;;;;;;5018983;27;90863;-71
2023/06/25 07:19:03;;;;;;;;;;;;;;;;;;5023097;28;90518;-72
2023/06/25 07:21:28;;;;;;;;;;;;;;;;;;5016533;28;91688;-72
2023/06/25 07:23:54;;;;;;;;;;;;;;;;;;5021912;28;89220;-76
2023/06/25 07:26:19;;;;;;;;;;;;;;;;;;5018879;28;90109;-77
2023/06/25 07:28:44;;;;;;;;;;;;;;;;;;5023239;28;89660;-77
2023/06/25 07:31:09;;;;;;;;;;;;;;;;;;5018129;28;90512;-76
2023/06/25 07:33:34;;;;;;;;;;;;;;;;;;5024200;27;89125;-75
2023/06/25 07:36:00;;;;;;;;;;;;;;;;;;5024724;28;89438;-72
2023/06/25 07:38:25;;;;;;;;;;;;;;;;;;5024238;28;89894;-73
2023/06/25 07:40:50;;;;;;;;;;;;;;;;;;5021705;28;90144;-71
2023/06/25 07:43:15;;;;;;;;;;;;;;;;;;5021013;28;89424;-71
2023/06/25 07:45:41;;;;;;;;;;;;;;;;;;5022394;28;90097;-72
2023/06/25 07:48:06;;;;;;;;;;;;;;;;;;5019365;27;91218;-75
2023/06/25 07:50:31;;;;;;;;;;;;;;;;;;5025537;27;89620;-74
2023/06/25 07:52:57;;;;;;;;;;;;;;;;;;5021888;27;90939;-73
2023/06/25 07:55:22;;;;;;;;;;;;;;;;;;5025289;28;90082;-74
2023/06/25 07:57:47;;;;;;;;;;;;;;;;;;5028667;28;90505;-74
2023/06/25 08:00:13;;;;;;;;;;;;;;;;;;5022726;28;91785;-76
2023/06/25 08:02:38;;;;;;;;;;;;;;;;;;5021082;28;92564;-75
2023/06/25 08:05:03;;;;;;;;;;;;;;;;;;5020945;28;89975;-75
2023/06/25 08:07:28;;;;;;;;;;;;;;;;;;5018008;27;89596;-77
2023/06/25 08:09:54;;;;;;;;;;;;;;;;;;5020607;28;90145;-78
2023/06/25 08:12:19;;;;;;;;;;;;;;;;;;5021909;28;90138;-76
2023/06/25 08:14:46;;;;;;;;;;;;;;;;;;5026544;27;89174;-77
2023/06/25 08:17:11;;;;;;;;;;;;;;;;;;5026523;28;89012;-77
2023/06/25 08:19:37;;;;;;;;;;;;;;;;;;5029402;27;89761;-78
2023/06/25 08:22:02;;;;;;;;;;;;;;;;;;5021295;28;90140;-77
2023/06/25 08:24:27;;;;;;;;;;;;;;;;;;5024890;28;90766;-77
2023/06/25 08:26:52;;;;;;;;;;;;;;;;;;5019225;28;90273;-77
2023/06/25 08:29:17;;;;;;;;;;;;;;;;;;5023655;28;90056;-77
2023/06/25 08:31:43;;;;;;;;;;;;;;;;;;5020236;28;89823;-78
2023/06/25 08:34:08;;;;;;;;;;;;;;;;;;5018350;27;89554;-78
2023/06/25 08:36:33;;;;;;;;;;;;;;;;;;5022636;28;89381;-76
2023/06/25 08:38:58;;;;;;;;;;;;;;;;;;5024488;27;92656;-77
2023/06/25 08:41:26;;;;;;;;;;;;;;;;;;5028892;28;89438;-78
2023/06/25 08:43:51;;;;;;;;;;;;;;;;;;5023557;28;89758;-76
2023/06/25 08:46:17;;;;;;;;;;;;;;;;;;5024717;27;89736;-75
2023/06/25 08:48:43;;;;;;;;;;;;;;;;;;5024594;28;89443;-78
2023/06/25 08:51:12;;;;;;;;;;;;;;;;;;5024427;27;89096;-77
2023/06/25 08:53:37;;;;;;;;;;;;;;;;;;5021626;28;90831;-77
2023/06/25 08:56:05;;;;;;;;;;;;;;;;;;5024209;27;89618;-77
2023/06/25 08:58:31;;;;;;;;;;;;;;;;;;5024960;28;92892;-78
2023/06/25 09:00:56;;;;;;;;;;;;;;;;;;5024585;28;89509;-77
2023/06/25 09:03:21;;;;;;;;;;;;;;;;;;5022395;27;91133;-77
2023/06/25 09:05:53;;;;;;;;;;;;;;;;;;5020923;28;89752;-77
2023/06/25 09:08:19;;;;;;;;;;;;;;;;;;5022470;28;89233;-76
2023/06/25 09:10:48;;;;;;;;;;;;;;;;;;5023034;27;89952;-77
2023/06/25 09:13:19;;;;;;;;;;;;;;;;;;5022922;28;89731;-75
2023/06/25 09:15:44;;;;;;;;;;;;;;;;;;5021750;28;89500;-75
2023/06/25 09:18:09;;;;;;;;;;;;;;;;;;5024517;28;89754;-76
2023/06/25 09:20:35;;;;;;;;;;;;;;;;;;5026239;28;89470;-75
2023/06/25 09:23:04;;;;;;;;;;;;;;;;;;5027652;28;90085;-75
2023/06/25 09:25:30;;;;;;;;;;;;;;;;;;5020865;28;89785;-75
2023/06/25 09:27:57;;;;;;;;;;;;;;;;;;5026005;28;89099;-74
2023/06/25 09:30:22;;;;;;;;;;;;;;;;;;5021857;27;89856;-75
2023/06/25 09:32:51;;;;;;;;;;;;;;;;;;5025459;27;89578;-75
2023/06/25 09:35:19;;;;;;;;;;;;;;;;;;5021503;28;90212;-75
2023/06/25 09:37:45;;;;;;;;;;;;;;;;;;5036234;27;92426;-75
2023/06/25 09:40:10;;;;;;;;;;;;;;;;;;5027012;27;89691;-75
2023/06/25 09:42:36;;;;;;;;;;;;;;;;;;5025109;28;89510;-74
2023/06/25 09:45:01;;;;;;;;;;;;;;;;;;5025858;27;90023;-75
2023/06/25 09:47:27;;;;;;;;;;;;;;;;;;5035035;27;90469;-74
2023/06/25 09:49:53;;;;;;;;;;;;;;;;;;5023225;28;90150;-74
2023/06/25 09:52:21;;;;;;;;;;;;;;;;;;5019686;28;89351;-74
2023/06/25 09:54:47;;;;;;;;;;;;;;;;;;5021812;28;89925;-74
2023/06/25 09:57:14;;;;;;;;;;;;;;;;;;5024654;28;90236;-75
2023/06/25 09:59:40;;;;;;;;;;;;;;;;;;5020505;28;90227;-75
2023/06/25 10:02:06;;;;;;;;;;;;;;;;;;5025064;27;89686;-76
2023/06/25 10:04:32;;;;;;;;;;;;;;;;;;5021483;28;89815;-75
2023/06/25 10:06:58;;;;;;;;;;;;;;;;;;5022412;28;90406;-74
2023/06/25 10:09:23;;;;;;;;;;;;;;;;;;5023816;27;90045;-75
2023/06/25 10:11:49;;;;;;;;;;;;;;;;;;5019502;28;92643;-75
2023/06/25 10:14:15;;;;;;;;;;;;;;;;;;5025663;27;89426;-75
2023/06/25 10:16:40;;;;;;;;;;;;;;;;;;5022155;27;89898;-75
2023/06/25 10:19:05;;;;;;;;;;;;;;;;;;5020921;28;89503;-75
2023/06/25 10:21:31;;;;;;;;;;;;;;;;;;5023517;28;89132;-75
2023/06/25 10:23:57;;;;;;;;;;;;;;;;;;5022316;27;90210;-74
2023/06/25 10:26:45;;;;;;;;;;;;;;;;;;5022726;28;91049;-74
2023/06/25 10:29:10;;;;;;;;;;;;;;;;;;5027036;27;90146;-75
2023/06/25 10:31:41;;;;;;;;;;;;;;;;;;5020080;28;89255;-75
2023/06/25 10:34:07;;;;;;;;;;;;;;;;;;5020755;28;89592;-75
2023/06/25 10:36:33;;;;;;;;;;;;;;;;;;5023215;27;90954;-75
2023/06/25 10:38:58;;;;;;;;;;;;;;;;;;5023748;27;90443;-75
2023/06/25 10:41:30;;;;;;;;;;;;;;;;;;5024375;27;89101;-74
2023/06/25 10:43:57;;;;;;;;;;;;;;;;;;5020433;28;89607;-75
2023/06/25 10:46:32;;;;;;;;;;;;;;;;;;5022916;27;90796;-75
2023/06/25 10:49:00;;;;;;;;;;;;;;;;;;5020602;28;89079;-75
2023/06/25 10:51:26;;;;;;;;;;;;;;;;;;5027233;28;89415;-74
2023/06/25 10:53:53;;;;;;;;;;;;;;;;;;5022659;28;91343;-74
2023/06/25 10:56:18;;;;;;;;;;;;;;;;;;5022498;27;89828;-74
2023/06/25 10:58:44;;;;;;;;;;;;;;;;;;5022754;28;90800;-75
2023/06/25 11:01:09;;;;;;;;;;;;;;;;;;5024983;28;89732;-75
2023/06/25 11:03:35;;;;;;;;;;;;;;;;;;5021815;27;89606;-76
2023/06/25 11:06:00;;;;;;;;;;;;;;;;;;5024515;27;89273;-74
2023/06/25 11:08:25;;;;;;;;;;;;;;;;;;5022804;28;90517;-74
2023/06/25 11:10:51;;;;;;;;;;;;;;;;;;5036370;27;90990;-75
2023/06/25 11:13:16;;;;;;;;;;;;;;;;;;5024291;27;89022;-75
2023/06/25 11:15:42;;;;;;;;;;;;;;;;;;5023698;27;90317;-75
2023/06/25 11:18:08;;;;;;;;;;;;;;;;;;5022951;28;90257;-75
2023/06/25 11:20:33;;;;;;;;;;;;;;;;;;5022411;28;89557;-75
2023/06/25 11:22:58;;;;;;;;;;;;;;;;;;5025289;28;90108;-75
2023/06/25 11:25:24;;;;;;;;;;;;;;;;;;5025412;28;89556;-75
2023/06/25 11:27:59;;;;;;;;;;;;;;;;;;5027498;27;89304;-74
2023/06/25 11:30:26;;;;;;;;;;;;;;;;;;5024738;28;90360;-75
2023/06/25 11:32:51;;;;;;;;;;;;;;;;;;5025715;28;89749;-74
2023/06/25 11:35:16;;;;;;;;;;;;;;;;;;5024642;28;91098;-75
2023/06/25 11:37:45;;;;;;;;;;;;;;;;;;5022246;27;89240;-75
2023/06/25 11:40:21;;;;;;;;;;;;;;;;;;5027760;27;89867;-75
2023/06/25 11:42:47;;;;;;;;;;;;;;;;;;5020796;28;89600;-73
2023/06/25 11:45:12;;;;;;;;;;;;;;;;;;5024255;28;90057;-75
2023/06/25 11:47:42;;;;;;;;;;;;;;;;;;5027183;28;90483;-75
2023/06/25 11:50:09;;;;;;;;;;;;;;;;;;5027588;27;89599;-75
2023/06/25 11:52:36;;;;;;;;;;;;;;;;;;5023199;27;89396;-75
2023/06/25 11:55:01;;;;;;;;;;;;;;;;;;5030064;28;89643;-75
2023/06/25 11:57:26;;;;;;;;;;;;;;;;;;5026901;28;90111;-75
2023/06/25 11:59:51;;;;;;;;;;;;;;;;;;5026716;28;90084;-75
2023/06/25 12:02:17;;;;;;;;;;;;;;;;;;5024917;28;90715;-74
2023/06/25 12:04:42;;;;;;;;;;;;;;;;;;5026596;27;90263;-75
2023/06/25 12:07:07;;;;;;;;;;;;;;;;;;5026516;28;90562;-75
2023/06/25 12:09:32;;;;;;;;;;;;;;;;;;5025267;27;89905;-75
2023/06/25 12:11:58;;;;;;;;;;;;;;;;;;5025679;28;89499;-76
2023/06/25 12:14:23;;;;;;;;;;;;;;;;;;5027283;28;89356;-75
2023/06/25 12:16:48;;;;;;;;;;;;;;;;;;5027605;28;89797;-75
2023/06/25 12:19:13;;;;;;;;;;;;;;;;;;5025363;28;90658;-75
2023/06/25 12:21:38;;;;;;;;;;;;;;;;;;5024176;28;89780;-75
2023/06/25 12:24:04;;;;;;;;;;;;;;;;;;5025715;28;89375;-75
2023/06/25 12:26:30;;;;;;;;;;;;;;;;;;5025881;27;89557;-75
2023/06/25 12:28:55;;;;;;;;;;;;;;;;;;5024332;27;90312;-74
2023/06/25 12:31:21;;;;;;;;;;;;;;;;;;5020507;28;90321;-75
2023/06/25 12:33:46;;;;;;;;;;;;;;;;;;5022665;28;89439;-74
2023/06/25 12:36:12;;;;;;;;;;;;;;;;;;5026738;28;90099;-74
2023/06/25 12:38:37;;;;;;;;;;;;;;;;;;5022578;28;90892;-75
2023/06/25 12:41:02;;;;;;;;;;;;;;;;;;5022970;28;89179;-75
2023/06/25 12:43:28;;;;;;;;;;;;;;;;;;5020124;28;89885;-75
2023/06/25 12:45:53;;;;;;;;;;;;;;;;;;5026619;28;89824;-75
2023/06/25 12:48:18;;;;;;;;;;;;;;;;;;5022521;28;90958;-74
2023/06/25 12:50:43;;;;;;;;;;;;;;;;;;5025871;28;89739;-75
2023/06/25 12:53:08;;;;;;;;;;;;;;;;;;5019543;28;89917;-74
2023/06/25 12:55:35;;;;;;;;;;;;;;;;;;5020567;28;90325;-75
2023/06/25 12:58:00;;;;;;;;;;;;;;;;;;5029759;28;89390;-75
2023/06/25 13:00:26;;;;;;;;;;;;;;;;;;5024861;28;91827;-74
2023/06/25 13:02:51;;;;;;;;;;;;;;;;;;5019064;28;89452;-74
2023/06/25 13:05:16;;;;;;;;;;;;;;;;;;5022756;28;89526;-74
2023/06/25 13:07:42;;;;;;;;;;;;;;;;;;5024897;27;89863;-77
2023/06/25 13:10:07;;;;;;;;;;;;;;;;;;5023450;27;89705;-77
2023/06/25 13:12:32;;;;;;;;;;;;;;;;;;5023141;28;90699;-76
2023/06/25 13:14:58;;;;;;;;;;;;;;;;;;5021190;28;91269;-77
2023/06/25 13:17:23;;;;;;;;;;;;;;;;;;5023828;28;89923;-77
2023/06/25 13:19:48;;;;;;;;;;;;;;;;;;5026205;28;89527;-78
2023/06/25 13:22:14;;;;;;;;;;;;;;;;;;5024378;28;90667;-78
2023/06/25 13:24:39;;;;;;;;;;;;;;;;;;5019986;27;89325;-77
2023/06/25 13:27:04;;;;;;;;;;;;;;;;;;5017676;27;90004;-75
2023/06/25 13:29:30;;;;;;;;;;;;;;;;;;5022970;28;89606;-77
2023/06/25 13:31:55;;;;;;;;;;;;;;;;;;5020609;28;90190;-75
2023/06/25 13:34:20;;;;;;;;;;;;;;;;;;5025040;27;89753;-76
2023/06/25 13:36:46;;;;;;;;;;;;;;;;;;5023356;28;90831;-76
2023/06/25 13:39:12;;;;;;;;;;;;;;;;;;5023012;27;89227;-77
2023/06/25 13:41:37;;;;;;;;;;;;;;;;;;5026732;28;90032;-77
2023/06/25 13:44:02;;;;;;;;;;;;;;;;;;5023380;28;90363;-76
2023/06/25 13:46:27;;;;;;;;;;;;;;;;;;5023675;28;90013;-77
2023/06/25 13:48:53;;;;;;;;;;;;;;;;;;5021660;28;90723;-76
2023/06/25 13:51:18;;;;;;;;;;;;;;;;;;5035875;27;92329;-77
2023/06/25 13:53:43;;;;;;;;;;;;;;;;;;5016847;28;89759;-77
2023/06/25 13:56:09;;;;;;;;;;;;;;;;;;5022957;27;89506;-77
2023/06/25 13:58:37;;;;;;;;;;;;;;;;;;5019870;28;90414;-77
2023/06/25 14:01:05;;;;;;;;;;;;;;;;;;5021685;28;90226;-76
2023/06/25 14:03:31;;;;;;;;;;;;;;;;;;5026885;28;89902;-76
2023/06/25 14:05:56;;;;;;;;;;;;;;;;;;5009613;28;93238;-77
2023/06/25 14:08:21;;;;;;;;;;;;;;;;;;5024829;27;90222;-77
2023/06/25 14:10:47;;;;;;;;;;;;;;;;;;5020820;28;89748;-77
2023/06/25 14:13:12;;;;;;;;;;;;;;;;;;5021529;28;89859;-77
2023/06/25 14:15:38;;;;;;;;;;;;;;;;;;5014885;27;90779;-79
2023/06/25 14:18:04;;;;;;;;;;;;;;;;;;5023701;28;89388;-77
2023/06/25 14:20:29;;;;;;;;;;;;;;;;;;5022834;28;89094;-79
2023/06/25 14:22:58;;;;;;;;;;;;;;;;;;5021945;28;89258;-77
2023/06/25 14:25:23;;;;;;;;;;;;;;;;;;5024058;27;90460;-78
2023/06/25 14:27:49;;;;;;;;;;;;;;;;;;5023334;28;89599;-77
2023/06/25 14:30:15;;;;;;;;;;;;;;;;;;5023952;28;90818;-77
2023/06/25 14:32:41;;;;;;;;;;;;;;;;;;5021518;28;90412;-76
2023/06/25 14:35:06;;;;;;;;;;;;;;;;;;5019493;27;89964;-77
2023/06/25 14:37:31;;;;;;;;;;;;;;;;;;5023554;28;89194;-77
2023/06/25 14:39:58;;;;;;;;;;;;;;;;;;5021369;28;89767;-77
2023/06/25 14:42:23;;;;;;;;;;;;;;;;;;5023484;28;89409;-77
2023/06/25 14:44:48;;;;;;;;;;;;;;;;;;5018476;28;89272;-76
2023/06/25 14:47:13;;;;;;;;;;;;;;;;;;5027412;28;89754;-77
2023/06/25 14:49:39;;;;;;;;;;;;;;;;;;5020151;28;89166;-77
2023/06/25 14:52:04;;;;;;;;;;;;;;;;;;5035994;27;92593;-77
2023/06/25 14:54:29;;;;;;;;;;;;;;;;;;5021044;28;89509;-77
2023/06/25 14:56:55;;;;;;;;;;;;;;;;;;5026833;28;89450;-79
2023/06/25 14:59:20;;;;;;;;;;;;;;;;;;5027103;27;89680;-78
2023/06/25 15:01:45;;;;;;;;;;;;;;;;;;5019189;28;91786;-79
2023/06/25 15:04:10;;;;;;;;;;;;;;;;;;5024704;28;89363;-79
2023/06/25 15:06:36;;;;;;;;;;;;;;;;;;5024880;28;89836;-80
2023/06/25 15:09:02;;;;;;;;;;;;;;;;;;5026837;28;89862;-78
2023/06/25 15:11:27;;;;;;;;;;;;;;;;;;5015097;28;92494;-78
2023/06/25 15:13:57;;;;;;;;;;;;;;;;;;5027376;28;90873;-78
2023/06/25 15:16:23;;;;;;;;;;;;;;;;;;5025724;27;90159;-78
2023/06/25 15:18:48;;;;;;;;;;;;;;;;;;5026724;28;90991;-80
2023/06/25 15:21:13;;;;;;;;;;;;;;;;;;5023604;28;89232;-78
2023/06/25 15:23:38;;;;;;;;;;;;;;;;;;5021587;28;89868;-78
2023/06/25 15:26:05;;;;;;;;;;;;;;;;;;5024262;28;89725;-79
2023/06/25 15:28:31;;;;;;;;;;;;;;;;;;5029171;28;89456;-79
2023/06/25 15:30:56;;;;;;;;;;;;;;;;;;5023996;28;89614;-78
2023/06/25 15:33:21;;;;;;;;;;;;;;;;;;5021023;28;90174;-79
2023/06/25 15:35:46;;;;;;;;;;;;;;;;;;5023677;27;89429;-79
2023/06/25 15:38:12;;;;;;;;;;;;;;;;;;5025399;28;89486;-77
2023/06/25 15:40:37;;;;;;;;;;;;;;;;;;5025524;27;90660;-78
2023/06/25 15:43:02;;;;;;;;;;;;;;;;;;5022545;28;89899;-78
2023/06/25 15:45:27;;;;;;;;;;;;;;;;;;5027647;28;90640;-79
2023/06/25 15:47:53;;;;;;;;;;;;;;;;;;5017579;28;90843;-78
2023/06/25 15:50:18;;;;;;;;;;;;;;;;;;5031265;27;90824;-79
2023/06/25 15:52:43;;;;;;;;;;;;;;;;;;5025812;28;89397;-80
2023/06/25 15:55:08;;;;;;;;;;;;;;;;;;5023291;28;89815;-79
2023/06/25 15:57:34;;;;;;;;;;;;;;;;;;5026144;28;91139;-78
2023/06/25 15:59:59;;;;;;;;;;;;;;;;;;5024075;28;89111;-79
2023/06/25 16:02:24;;;;;;;;;;;;;;;;;;5025988;28;91044;-78
2023/06/25 16:04:49;;;;;;;;;;;;;;;;;;5023076;28;89559;-78
2023/06/25 16:07:14;;;;;;;;;;;;;;;;;;5024572;28;89889;-80
2023/06/25 16:09:40;;;;;;;;;;;;;;;;;;5025678;27;90360;-79
2023/06/25 16:12:05;;;;;;;;;;;;;;;;;;5023467;28;89922;-79
2023/06/25 16:14:30;;;;;;;;;;;;;;;;;;5025349;28;89659;-79
2023/06/25 16:16:55;;;;;;;;;;;;;;;;;;5025585;28;90033;-78
2023/06/25 16:19:21;;;;;;;;;;;;;;;;;;5025671;28;89935;-78
2023/06/25 16:21:46;;;;;;;;;;;;;;;;;;5025117;28;89566;-79
2023/06/25 16:24:11;;;;;;;;;;;;;;;;;;5027038;28;90066;-79
2023/06/25 16:26:36;;;;;;;;;;;;;;;;;;5023440;28;89671;-78
2023/06/25 16:29:01;;;;;;;;;;;;;;;;;;5026025;28;89189;-79
2023/06/25 16:31:27;;;;;;;;;;;;;;;;;;5025494;28;90905;-78
2023/06/25 16:33:52;;;;;;;;;;;;;;;;;;5025681;27;90903;-79
2023/06/25 16:36:17;;;;;;;;;;;;;;;;;;5024971;27;91654;-79